Arba, Indiana
Current Conditions -  °F | °C
As of 5:35 PM on Sunday 23 Nov 2014 (Local Time) from KVES Reporting Station
Broken Clouds Broken Clouds  
Wind Chill: 54°   Ceiling: 9000
Heat Index: 54°   Visibility: 10mi
Dew Point: 46°   Wind: 13mph
Humidity: 77%   Direction: 130°SE
Pressure: 29.52"   Gusts: 18mph
Location:  40.0606°N, 84.9258°W
Report Text: KVES 232235Z AUTO 13011G16KT 10SM SCT055 BKN090 12/08 A2952 RMK AO2
Loading
Personal Weather Stations






























Interactive Weather Map New forecast layout! Learn more

10-Day Weather Forecast

Advertisements
Track Severe Weather on mobile